IKT weather

Irkutsk Airport
Irkutsk, Irkutsk Oblast, Russia

Public forecast

Using degrees Celsius for public forecast. Weather courtesy of forecast.io.

METAR (pilot weather report)

Retrieved 2019/04/25 09:30 UTC (13 minutes ago):

UIII 250930Z 15004MPS 110V190 CAVOK 16/M07 Q1011 R12/CLRD60 NOSIG RMK QFE716/0955

TAF (pilot weather forecast)

Retrieved 2019/04/25 09:22 UTC (21 minutes ago):

TAF UIII 250800Z 2509/2609 16005MPS CAVOK